Terminal Aerodrome Forecast
Issued by NWS

Current Version | Previous Version | Graphics & Text | Print | Product List | Glossary On
Versions: 1 2 3 4 5 6 7 8 9 10 11 12 13 14 15 16 17 18
000
FTUS41 KRNK 232321
TAFLWB
TAF
KLWB 232321Z 2400/2424 09006KT P6SM -RA SCT060 OVC100
      TEMPO 2400/2402 4SM RA OVC050
     FM240200 08008KT 6SM -RA OVC040
     FM240800 07008KT 4SM -RA OVC020
     FM241400 08009KT 4SM -SHRA OVC008
     FM241800 09008KT P6SM VCSH OVC010=

USA.gov is the U.S. government's official web portal to all federal, state and local government web resources and services.